Ever Ulysses — 9V7962 — position and weather

sailwx.info

Track history (hours):
 
Tides and Currents Weather Stations Pressure Air Temp Water Temp Dewpoint Dewpoint Depression Visibility Wind Speed Wind Dir Waves Ship Positions

Ever Ulysses

Last reported at 2015-Apr-18 01:33 UTC. Time now 2015-Apr-21 09:54 UTC.
Position N 01°57' E 102°15'.

Length 285 m; draft 12.5 m.

Type: Ship (hazmat cat D). MMSI: 564442000.

Date/timePositionNaut miles runAvg speedWind from/ knotsBaromVisibWave heightAir tempDewpointWater temp
2015-Apr-18 01:33N 01°57' E 102°15'1818.2
2015-Apr-18 00:33N 01°49' E 102°31'84 3.1
2015-Apr-16 21:32N 01°09' E 103°46'1515.4
2015-Apr-16 20:33N 01°15' E 103°60'1414.2
2015-Apr-16 19:33N 01°17' E 104°14'  
2015-Apr-13 11:33N 21°54' E 114°27'2319.2
2015-Apr-13 10:20N 22°17' E 114°27'1814.1
2015-Apr-13 09:04N 22°34' E 114°19'3 0.3
2015-Apr-13 01:07N 22°34' E 114°16'2 2.1
2015-Apr-13 00:24N 22°34' E 114°18'7 7.9
2015-Apr-12 23:32N 22°32' E 114°25'1515.0
2015-Apr-12 22:33N 22°18' E 114°28'1414.1
2015-Apr-12 21:33N 22°07' E 114°18'1412.7
2015-Apr-12 20:28N 22°16' E 114°06'910.2
2015-Apr-12 19:33N 22°21' E 113°58'7 6.3
2015-Apr-12 18:21N 22°27' E 113°54'0 0.0
2015-Apr-12 17:33N 22°27' E 113°54'0 0.0
2015-Apr-12 16:27N 22°27' E 113°54'0 0.0
2015-Apr-12 15:27N 22°27' E 113°54'0 0.0
2015-Apr-12 14:27N 22°27' E 113°54'0 0.0
2015-Apr-12 13:27N 22°27' E 113°54'0 0.0
2015-Apr-12 12:27N 22°27' E 113°54'0 0.0
2015-Apr-12 11:33N 22°27' E 113°54'0 0.0
2015-Apr-12 10:33N 22°27' E 113°54'0 0.0
2015-Apr-12 09:33N 22°27' E 113°54'3 3.0
2015-Apr-12 08:33N 22°24' E 113°54'11 9.6
2015-Apr-12 07:25N 22°20' E 114°05'1110.9
2015-Apr-12 06:26N 22°12' E 114°11'1213.7
2015-Apr-12 05:33N 22°09' E 114°24'13217.8
2015-Apr-11 22:07N 22°43' E 116°43'1118.5
2015-Apr-11 21:30N 22°50' E 116°52'16318.1
2015-Apr-11 12:29N 24°22' E 119°19'340 8.1
2015-Apr-09 18:33N 29°14' E 122°33'1616.2
2015-Apr-09 17:32N 29°31' E 122°32'1313.2
2015-Apr-09 16:34N 29°42' E 122°24'1010.3
2015-Apr-09 15:33N 29°48' E 122°15'10 9.5
2015-Apr-09 14:33N 29°55' E 122°07'4 4.2
2015-Apr-09 13:33N 29°53' E 122°03'0 0.0
2015-Apr-09 12:29N 29°53' E 122°03'0 0.0
2015-Apr-09 10:11N 29°53' E 122°03'0 0.0
2015-Apr-09 08:11N 29°53' E 122°03'0 0.0
2015-Apr-09 07:29N 29°53' E 122°03'0 0.0
2015-Apr-09 06:05N 29°53' E 122°03'0 0.0
2015-Apr-09 05:23N 29°53' E 122°03'0 0.0
2015-Apr-09 04:29N 29°53' E 122°03'0 0.0
2015-Apr-09 03:08N 29°53' E 122°03'0 0.1
2015-Apr-09 02:29N 29°53' E 122°03'0 0.0
2015-Apr-09 01:32N 29°53' E 122°03'0 0.0
2015-Apr-09 00:29N 29°53' E 122°03'0 0.0
2015-Apr-08 23:11N 29°53' E 122°03'1 1.2
2015-Apr-08 22:32N 29°54' E 122°04'7 7.2
2015-Apr-08 21:33N 29°52' E 122°12'9 9.3
2015-Apr-08 20:33N 29°45' E 122°19'7 7.1
2015-Apr-08 19:32N 29°45' E 122°27'0 0.1
2015-Apr-08 16:11N 29°45' E 122°27'0 0.1
2015-Apr-08 11:23N 29°45' E 122°27'0 0.1
2015-Apr-08 09:29N 29°45' E 122°27'0 0.0
2015-Apr-08 07:05N 29°45' E 122°27'0 0.1
2015-Apr-08 02:29N 29°45' E 122°27'  
Track history (hours):
 
Tides and Currents Weather Stations Pressure Air Temp Water Temp Dewpoint Dewpoint Depression Visibility Wind Speed Wind Dir Waves Ship Positions

Ever Ulysses

Last reported at 2015-Apr-18 01:33 UTC. Time now 2015-Apr-21 09:54 UTC.
Position N 01°57' E 102°15'.

Length 285 m; draft 12.5 m.

Type: Ship (hazmat cat D). MMSI: 564442000.

Date/timePositionNaut miles runAvg speedWind from/ knotsBaromVisibWave heightAir tempDewpointWater temp
2015-Apr-18 01:33N 01°57' E 102°15'1818.2
2015-Apr-18 00:33N 01°49' E 102°31'84 3.1
2015-Apr-16 21:32N 01°09' E 103°46'1515.4
2015-Apr-16 20:33N 01°15' E 103°60'1414.2
2015-Apr-16 19:33N 01°17' E 104°14'  
2015-Apr-13 11:33N 21°54' E 114°27'2319.2
2015-Apr-13 10:20N 22°17' E 114°27'1814.1
2015-Apr-13 09:04N 22°34' E 114°19'3 0.3
2015-Apr-13 01:07N 22°34' E 114°16'2 2.1
2015-Apr-13 00:24N 22°34' E 114°18'7 7.9
2015-Apr-12 23:32N 22°32' E 114°25'1515.0
2015-Apr-12 22:33N 22°18' E 114°28'1414.1
2015-Apr-12 21:33N 22°07' E 114°18'1412.7
2015-Apr-12 20:28N 22°16' E 114°06'910.2
2015-Apr-12 19:33N 22°21' E 113°58'7 6.3
2015-Apr-12 18:21N 22°27' E 113°54'0 0.0
2015-Apr-12 17:33N 22°27' E 113°54'0 0.0
2015-Apr-12 16:27N 22°27' E 113°54'0 0.0
2015-Apr-12 15:27N 22°27' E 113°54'0 0.0
2015-Apr-12 14:27N 22°27' E 113°54'0 0.0
2015-Apr-12 13:27N 22°27' E 113°54'0 0.0
2015-Apr-12 12:27N 22°27' E 113°54'0 0.0
2015-Apr-12 11:33N 22°27' E 113°54'0 0.0
2015-Apr-12 10:33N 22°27' E 113°54'0 0.0
2015-Apr-12 09:33N 22°27' E 113°54'3 3.0
2015-Apr-12 08:33N 22°24' E 113°54'11 9.6
2015-Apr-12 07:25N 22°20' E 114°05'1110.9
2015-Apr-12 06:26N 22°12' E 114°11'1213.7
2015-Apr-12 05:33N 22°09' E 114°24'13217.8
2015-Apr-11 22:07N 22°43' E 116°43'1118.5
2015-Apr-11 21:30N 22°50' E 116°52'16318.1
2015-Apr-11 12:29N 24°22' E 119°19'340 8.1
2015-Apr-09 18:33N 29°14' E 122°33'1616.2
2015-Apr-09 17:32N 29°31' E 122°32'1313.2
2015-Apr-09 16:34N 29°42' E 122°24'1010.3
2015-Apr-09 15:33N 29°48' E 122°15'10 9.5
2015-Apr-09 14:33N 29°55' E 122°07'4 4.2
2015-Apr-09 13:33N 29°53' E 122°03'0 0.0
2015-Apr-09 12:29N 29°53' E 122°03'0 0.0
2015-Apr-09 10:11N 29°53' E 122°03'0 0.0
2015-Apr-09 08:11N 29°53' E 122°03'0 0.0
2015-Apr-09 07:29N 29°53' E 122°03'0 0.0
2015-Apr-09 06:05N 29°53' E 122°03'0 0.0
2015-Apr-09 05:23N 29°53' E 122°03'0 0.0
2015-Apr-09 04:29N 29°53' E 122°03'0 0.0
2015-Apr-09 03:08N 29°53' E 122°03'0 0.1
2015-Apr-09 02:29N 29°53' E 122°03'0 0.0
2015-Apr-09 01:32N 29°53' E 122°03'0 0.0
2015-Apr-09 00:29N 29°53' E 122°03'0 0.0
2015-Apr-08 23:11N 29°53' E 122°03'1 1.2
2015-Apr-08 22:32N 29°54' E 122°04'7 7.2
2015-Apr-08 21:33N 29°52' E 122°12'9 9.3
2015-Apr-08 20:33N 29°45' E 122°19'7 7.1
2015-Apr-08 19:32N 29°45' E 122°27'0 0.1
2015-Apr-08 16:11N 29°45' E 122°27'0 0.1
2015-Apr-08 11:23N 29°45' E 122°27'0 0.1
2015-Apr-08 09:29N 29°45' E 122°27'0 0.0
2015-Apr-08 07:05N 29°45' E 122°27'0 0.1
2015-Apr-08 02:29N 29°45' E 122°27'  

Dump ship's entire track history